createdAt,value
2018-04-17T00:00:10.577Z,40.67
2018-04-17T00:02:38.148Z,78.63
2018-04-17T00:05:05.711Z,58.97
2018-04-17T00:07:34.062Z,56.30
2018-04-17T00:10:01.636Z,37.40
2018-04-17T00:12:29.205Z,59.23
2018-04-17T00:14:56.771Z,51.03
2018-04-17T00:17:24.343Z,43.43
2018-04-17T00:19:52.666Z,30.43
2018-04-17T00:22:20.240Z,34.03
2018-04-17T00:24:47.797Z,28.67
2018-04-17T00:27:15.418Z,30.07
2018-04-17T00:29:43.763Z,50.40
2018-04-17T00:32:11.352Z,45.70
2018-04-17T00:34:38.923Z,35.03
2018-04-17T00:37:06.510Z,33.40
2018-04-17T00:39:34.113Z,67.57
2018-04-17T00:42:01.717Z,35.70
2018-04-17T00:44:29.291Z,43.43
2018-04-17T00:46:56.872Z,37.60
2018-04-17T00:49:24.450Z,41.60
2018-04-17T00:51:52.004Z,42.27
2018-04-17T00:54:19.576Z,44.13
2018-04-17T00:56:47.207Z,42.43
2018-04-17T00:59:15.540Z,43.17
2018-04-17T01:01:43.894Z,47.40
2018-04-17T01:04:11.478Z,47.87
2018-04-17T01:06:39.796Z,44.87
2018-04-17T01:09:08.135Z,41.53
2018-04-17T01:11:36.460Z,44.97
2018-04-17T01:14:04.044Z,44.23
2018-04-17T01:16:31.623Z,53.37
2018-04-17T01:18:59.946Z,45.90
2018-04-17T01:21:27.513Z,47.40
2018-04-17T01:23:55.104Z,43.97
2018-04-17T01:26:22.694Z,40.77
2018-04-17T01:28:51.053Z,42.73
2018-04-17T01:31:18.611Z,41.67
2018-04-17T01:33:46.200Z,47.83
2018-04-17T01:36:14.555Z,41.17
2018-04-17T01:38:42.129Z,44.23
2018-04-17T01:41:10.469Z,40.80
2018-04-17T01:43:38.029Z,45.60
2018-04-17T01:46:05.640Z,40.40
2018-04-17T01:48:33.954Z,39.50
2018-04-17T01:51:01.566Z,46.50
2018-04-17T01:53:29.114Z,41.23
2018-04-17T01:55:56.764Z,37.63
2018-04-17T01:58:24.315Z,38.93
2018-04-17T02:00:51.912Z,41.43
2018-04-17T02:03:19.467Z,45.33
2018-04-17T02:05:47.036Z,53.53
2018-04-17T02:08:15.363Z,51.47
2018-04-17T02:10:42.956Z,47.40
2018-04-17T02:13:10.624Z,46.93
2018-04-17T02:15:38.208Z,38.80
2018-04-17T02:18:06.524Z,57.40
2018-04-17T02:20:34.129Z,41.73
2018-04-17T02:23:01.776Z,41.17
2018-04-17T02:25:29.368Z,35.20
2018-04-17T02:27:57.752Z,45.97
2018-04-17T02:30:26.079Z,39.00
2018-04-17T02:32:53.689Z,53.20
2018-04-17T02:35:22.040Z,41.73
2018-04-17T02:37:49.612Z,43.00
2018-04-17T02:40:17.185Z,48.03
2018-04-17T02:42:45.541Z,43.63
2018-04-17T02:45:13.125Z,47.13
2018-04-17T02:47:41.475Z,49.30
2018-04-17T02:50:09.051Z,47.70
2018-04-17T02:52:36.761Z,43.33
2018-04-17T02:55:04.327Z,45.00
2018-04-17T02:57:31.941Z,44.20
2018-04-17T02:59:59.483Z,44.07
2018-04-17T03:02:27.051Z,41.97
2018-04-17T03:04:54.635Z,50.20
2018-04-17T03:07:22.982Z,40.40
2018-04-17T03:09:50.569Z,48.77
2018-04-17T03:12:18.910Z,46.20
2018-04-17T03:14:46.500Z,47.50
2018-04-17T03:17:14.071Z,47.17
2018-04-17T03:19:42.519Z,50.20
2018-04-17T03:22:10.083Z,45.90
2018-04-17T03:24:37.660Z,48.93
2018-04-17T03:27:05.223Z,43.43
2018-04-17T03:29:32.838Z,50.27
2018-04-17T03:32:00.419Z,52.20
2018-04-17T03:34:27.983Z,47.33
2018-04-17T03:36:55.555Z,53.83
2018-04-17T03:39:23.128Z,50.40
2018-04-17T03:41:50.692Z,38.07
2018-04-17T03:44:18.261Z,54.60
2018-04-17T03:46:46.626Z,51.70
2018-04-17T03:49:14.257Z,45.70
2018-04-17T03:51:41.848Z,48.60
2018-04-17T03:54:09.419Z,41.47
2018-04-17T03:56:37.765Z,49.83
2018-04-17T03:59:05.348Z,46.47
2018-04-17T04:01:33.002Z,48.27
2018-04-17T04:04:00.559Z,51.37
2018-04-17T04:06:28.137Z,47.07
2018-04-17T04:08:55.692Z,47.93
2018-04-17T04:11:24.053Z,50.73
2018-04-17T04:13:51.711Z,57.23
2018-04-17T04:16:31.072Z,49.30
2018-04-17T04:19:10.476Z,45.53
2018-04-17T04:21:50.954Z,48.77
2018-04-17T04:24:30.183Z,51.93
2018-04-17T04:26:57.771Z,54.07
2018-04-17T04:29:25.369Z,42.87
2018-04-17T04:31:53.668Z,45.93
2018-04-17T04:34:21.247Z,55.73
2018-04-17T04:36:48.816Z,49.33
2018-04-17T04:39:16.403Z,52.63
2018-04-17T04:41:44.012Z,47.33
2018-04-17T04:44:11.596Z,42.43
2018-04-17T04:46:39.162Z,43.10
2018-04-17T04:49:06.751Z,40.70
2018-04-17T04:51:34.307Z,56.97
2018-04-17T04:54:02.011Z,46.67
2018-04-17T04:56:29.605Z,49.07
2018-04-17T04:58:57.174Z,51.60
2018-04-17T05:01:24.728Z,52.37
2018-04-17T05:03:52.303Z,43.93
2018-04-17T05:06:19.856Z,44.80
2018-04-17T05:08:47.435Z,49.60
2018-04-17T05:11:15.760Z,49.37
2018-04-17T05:13:43.339Z,43.90
2018-04-17T05:16:10.924Z,46.33
2018-04-17T05:18:38.504Z,50.77
2018-04-17T05:21:07.019Z,54.13
2018-04-17T05:23:34.603Z,42.57
2018-04-17T05:26:02.168Z,47.40
2018-04-17T05:28:29.788Z,52.50
2018-04-17T05:30:57.357Z,52.17
2018-04-17T05:33:24.964Z,55.10
2018-04-17T05:35:52.542Z,47.63
2018-04-17T05:38:20.175Z,42.87
2018-04-17T05:40:47.730Z,49.73
2018-04-17T05:43:15.284Z,52.20
2018-04-17T05:45:42.859Z,46.30
2018-04-17T05:48:10.426Z,59.67
2018-04-17T05:50:38.019Z,47.20
2018-04-17T05:53:06.369Z,39.10
2018-04-17T05:55:34.792Z,46.43
2018-04-17T05:58:03.127Z,42.20
2018-04-17T06:00:30.739Z,43.57
2018-04-17T06:02:58.293Z,37.70
2018-04-17T06:05:26.675Z,40.70
2018-04-17T06:07:54.248Z,50.33
2018-04-17T06:10:21.856Z,42.50
2018-04-17T06:12:49.461Z,41.60
2018-04-17T06:15:17.078Z,37.63
2018-04-17T06:17:44.862Z,39.30
2018-04-17T06:20:12.453Z,43.17
2018-04-17T06:22:40.016Z,38.20
2018-04-17T06:25:07.623Z,45.13
2018-04-17T06:27:35.201Z,34.20
2018-04-17T06:30:02.777Z,33.53
2018-04-17T06:32:30.363Z,36.80
2018-04-17T06:34:57.943Z,39.13
2018-04-17T06:37:25.587Z,33.00
2018-04-17T06:39:53.947Z,38.23
2018-04-17T06:42:22.299Z,32.00
2018-04-17T06:44:49.851Z,34.30
2018-04-17T06:47:17.489Z,32.83
2018-04-17T06:49:45.019Z,43.40
2018-04-17T06:52:12.619Z,30.90
2018-04-17T06:54:40.176Z,33.67
2018-04-17T06:57:07.759Z,37.30
2018-04-17T06:59:35.412Z,36.67
2018-04-17T07:02:03.006Z,33.87
2018-04-17T07:04:30.556Z,36.67
2018-04-17T07:06:58.198Z,31.47
2018-04-17T07:09:25.745Z,29.37
2018-04-17T07:11:53.324Z,32.00
2018-04-17T07:14:20.908Z,34.27
2018-04-17T07:16:48.475Z,31.20
2018-04-17T07:19:16.816Z,31.77
2018-04-17T07:21:44.388Z,37.03
2018-04-17T07:24:11.992Z,35.43
2018-04-17T07:26:40.340Z,31.70
2018-04-17T07:29:07.927Z,34.67
2018-04-17T07:31:36.265Z,37.40
2018-04-17T07:34:03.846Z,30.50
2018-04-17T07:36:31.403Z,33.97
2018-04-17T07:38:59.004Z,45.23
2018-04-17T07:41:26.560Z,35.87
2018-04-17T07:43:54.145Z,33.40
2018-04-17T07:46:21.705Z,29.93
2018-04-17T07:48:50.342Z,30.03
2018-04-17T07:51:17.897Z,35.30
2018-04-17T07:53:45.547Z,34.77
2018-04-17T07:56:13.218Z,35.13
2018-04-17T07:58:40.807Z,32.30
2018-04-17T08:01:09.178Z,26.23
2018-04-17T08:03:37.512Z,32.47
2018-04-17T08:06:05.193Z,26.00
2018-04-17T08:08:32.858Z,25.93
2018-04-17T08:11:00.453Z,31.53
2018-04-17T08:13:28.784Z,31.73
2018-04-17T08:15:56.393Z,30.43
2018-04-17T08:18:24.705Z,31.10
2018-04-17T08:20:52.284Z,42.00
2018-04-17T08:23:19.858Z,28.90
2018-04-17T08:25:47.420Z,27.03
2018-04-17T08:28:14.979Z,38.77
2018-04-17T08:30:42.568Z,27.50
2018-04-17T08:33:10.912Z,28.87
2018-04-17T08:35:38.501Z,31.13
2018-04-17T08:38:06.858Z,42.03
2018-04-17T08:40:34.427Z,29.53
2018-04-17T08:43:01.988Z,20.40
2018-04-17T08:45:29.603Z,26.67
2018-04-17T08:47:57.186Z,23.37
2018-04-17T08:50:24.860Z,31.90
2018-04-17T08:52:52.428Z,31.30
2018-04-17T08:55:20.024Z,28.27
2018-04-17T08:57:48.367Z,27.73
2018-04-17T09:00:16.028Z,31.90
2018-04-17T09:02:43.613Z,31.50
2018-04-17T09:05:13.278Z,31.30
2018-04-17T09:07:40.877Z,26.53
2018-04-17T09:10:08.517Z,30.70
2018-04-17T09:12:36.111Z,32.23
2018-04-17T09:15:04.431Z,31.33
2018-04-17T09:17:32.011Z,28.73
2018-04-17T09:19:59.575Z,27.07
2018-04-17T09:22:27.284Z,31.43
2018-04-17T09:24:55.624Z,30.10
2018-04-17T09:27:23.243Z,33.67
2018-04-17T09:29:50.816Z,30.00
2018-04-17T09:32:18.448Z,26.20
2018-04-17T09:34:46.779Z,26.73
2018-04-17T09:37:14.369Z,23.50
2018-04-17T09:39:41.946Z,29.20
2018-04-17T09:42:10.319Z,22.37
2018-04-17T09:44:37.877Z,32.00
2018-04-17T09:47:06.209Z,26.57
2018-04-17T09:49:33.791Z,29.67
2018-04-17T09:52:01.376Z,28.10
2018-04-17T09:54:28.945Z,36.20
2018-04-17T09:56:57.297Z,31.73
2018-04-17T09:59:24.960Z,35.57
2018-04-17T10:01:52.516Z,30.43
2018-04-17T10:04:20.086Z,28.73
2018-04-17T10:06:47.689Z,34.83
2018-04-17T10:09:16.026Z,39.13
2018-04-17T10:11:43.580Z,35.37
2018-04-17T10:14:11.183Z,28.97
2018-04-17T10:16:39.584Z,34.57
2018-04-17T10:19:07.176Z,36.20
2018-04-17T10:21:34.747Z,30.00
2018-04-17T10:24:02.324Z,28.00
2018-04-17T10:26:29.884Z,29.67
2018-04-17T10:28:57.472Z,31.57
2018-04-17T10:31:25.064Z,36.83
2018-04-17T10:33:52.624Z,33.23
2018-04-17T10:36:20.210Z,31.37
2018-04-17T10:38:47.772Z,31.87
2018-04-17T10:41:15.366Z,28.87
2018-04-17T10:43:43.704Z,27.73
2018-04-17T10:46:11.284Z,26.77
2018-04-17T10:48:38.879Z,34.13
2018-04-17T10:51:07.295Z,31.80
2018-04-17T10:53:34.880Z,31.60
2018-04-17T10:56:02.523Z,28.57
2018-04-17T10:58:30.182Z,29.83
2018-04-17T11:00:57.741Z,26.70
2018-04-17T11:03:25.367Z,28.97
2018-04-17T11:05:52.937Z,28.13
2018-04-17T11:08:20.569Z,28.17
2018-04-17T11:10:48.124Z,26.37
2018-04-17T11:13:15.735Z,28.70
2018-04-17T11:15:44.082Z,27.50
2018-04-17T11:18:12.446Z,32.40
2018-04-17T11:20:40.000Z,29.10
2018-04-17T11:23:07.586Z,33.53
2018-04-17T11:25:35.912Z,37.13
2018-04-17T11:28:03.516Z,42.17
2018-04-17T11:30:31.078Z,28.23
2018-04-17T11:32:58.672Z,32.53
2018-04-17T11:35:26.332Z,30.00
2018-04-17T11:37:54.011Z,25.70
2018-04-17T11:40:21.598Z,28.80
2018-04-17T11:42:49.171Z,31.87
2018-04-17T11:45:16.736Z,30.43
2018-04-17T11:47:44.318Z,26.77
2018-04-17T11:50:12.647Z,29.80
2018-04-17T11:52:40.224Z,20.43
2018-04-17T11:55:08.360Z,26.33
2018-04-17T11:57:35.994Z,29.07
2018-04-17T12:00:03.618Z,30.67
2018-04-17T12:02:31.195Z,31.47
2018-04-17T12:04:58.782Z,30.97
2018-04-17T12:07:27.128Z,22.93
2018-04-17T12:09:54.708Z,21.07
2018-04-17T12:12:23.058Z,22.00
2018-04-17T12:14:50.646Z,23.57
2018-04-17T12:17:19.000Z,20.60
2018-04-17T12:19:46.606Z,32.40
2018-04-17T12:22:14.986Z,25.50
2018-04-17T12:24:42.597Z,20.73
2018-04-17T12:27:10.201Z,27.73
2018-04-17T12:29:38.533Z,51.07
2018-04-17T12:32:06.106Z,22.93
2018-04-17T12:34:33.739Z,23.10
2018-04-17T12:37:01.348Z,22.47
2018-04-17T12:39:28.923Z,21.80
2018-04-17T12:41:57.267Z,22.17
2018-04-17T12:44:24.846Z,29.13
2018-04-17T12:46:52.429Z,24.10
2018-04-17T12:49:20.771Z,19.77
2018-04-17T12:51:48.336Z,23.67
2018-04-17T12:54:15.914Z,22.80
2018-04-17T12:56:44.262Z,26.10
2018-04-17T12:59:11.841Z,23.93
2018-04-17T13:01:39.422Z,19.50
2018-04-17T13:04:07.797Z,24.90
2018-04-17T13:06:36.154Z,22.37
2018-04-17T13:09:03.730Z,23.50
2018-04-17T13:11:31.311Z,21.67
2018-04-17T13:13:59.654Z,27.00
2018-04-17T13:16:27.228Z,20.90
2018-04-17T13:18:54.849Z,22.50
2018-04-17T13:21:23.191Z,28.73
2018-04-17T13:23:51.505Z,24.13
2018-04-17T13:26:19.115Z,23.90
2018-04-17T13:28:46.677Z,24.90
2018-04-17T13:31:14.288Z,26.63
2018-04-17T13:33:41.890Z,25.87
2018-04-17T13:36:09.538Z,23.47
2018-04-17T13:38:37.110Z,18.23
2018-04-17T13:41:04.695Z,18.83
2018-04-17T13:43:33.040Z,21.10
2018-04-17T13:46:00.898Z,18.40
2018-04-17T13:48:28.516Z,32.70
2018-04-17T13:50:57.004Z,22.20
2018-04-17T13:53:24.574Z,22.07
2018-04-17T13:55:52.161Z,24.37
2018-04-17T13:58:19.805Z,22.20
2018-04-17T14:00:47.443Z,21.57
2018-04-17T14:03:15.754Z,23.10
2018-04-17T14:05:43.307Z,25.10
2018-04-17T14:08:10.925Z,29.43
2018-04-17T14:10:38.475Z,36.70
2018-04-17T14:13:06.056Z,26.23
2018-04-17T14:15:34.384Z,26.47
2018-04-17T14:18:01.961Z,21.23
2018-04-17T14:20:29.544Z,17.73
2018-04-17T14:22:57.141Z,27.77
2018-04-17T14:25:24.712Z,24.20
2018-04-17T14:27:53.066Z,18.87
2018-04-17T14:30:21.394Z,25.90
2018-04-17T14:32:49.038Z,16.87
2018-04-17T14:35:16.601Z,28.23
2018-04-17T14:37:44.202Z,34.43
2018-04-17T14:40:11.778Z,24.50
2018-04-17T14:42:39.484Z,21.33
2018-04-17T14:45:07.828Z,26.43
2018-04-17T14:47:36.253Z,25.73
2018-04-17T14:50:03.829Z,25.60
2018-04-17T14:52:31.444Z,20.20
2018-04-17T14:54:59.934Z,18.70
2018-04-17T14:57:27.529Z,23.60
2018-04-17T14:59:55.139Z,32.17
2018-04-17T15:02:23.489Z,25.60
2018-04-17T15:04:51.072Z,29.10
2018-04-17T15:07:19.417Z,22.40
2018-04-17T15:09:47.002Z,29.10
2018-04-17T15:12:14.587Z,21.63
2018-04-17T15:14:42.940Z,22.50
2018-04-17T15:17:10.512Z,20.33
2018-04-17T15:19:38.875Z,24.90
2018-04-17T15:22:06.445Z,23.60
2018-04-17T15:24:34.021Z,22.27
2018-04-17T15:27:02.344Z,19.20
2018-04-17T15:29:29.932Z,19.13
2018-04-17T15:31:57.511Z,26.17
2018-04-17T15:34:25.861Z,22.33
2018-04-17T15:36:53.394Z,27.07
2018-04-17T15:39:21.749Z,19.50
2018-04-17T15:41:49.309Z,23.70
2018-04-17T15:44:16.891Z,25.03
2018-04-17T15:46:44.480Z,17.83
2018-04-17T15:49:12.068Z,20.70
2018-04-17T15:51:39.648Z,18.33
2018-04-17T15:54:07.974Z,17.07
2018-04-17T15:56:35.601Z,18.67
2018-04-17T15:59:03.170Z,21.40
2018-04-17T16:07:37.582Z,22.47
2018-04-17T16:10:06.061Z,19.53
2018-04-17T16:12:33.647Z,23.80
2018-04-17T16:15:02.025Z,32.50
2018-04-17T16:17:30.368Z,31.17
2018-04-17T16:19:57.933Z,22.00
2018-04-17T16:22:25.573Z,22.67
2018-04-17T16:24:53.160Z,20.53
2018-04-17T16:27:20.758Z,18.80
2018-04-17T16:29:49.121Z,27.40
2018-04-17T16:32:16.696Z,24.17
2018-04-17T16:34:45.083Z,38.93
2018-04-17T16:37:13.429Z,27.07
2018-04-17T16:39:41.019Z,32.93
2018-04-17T16:42:09.351Z,21.37
2018-04-17T16:44:36.955Z,22.50
2018-04-17T16:47:05.316Z,20.83
2018-04-17T16:49:32.889Z,22.20
2018-04-17T16:52:01.229Z,31.77
2018-04-17T16:54:28.811Z,21.00
2018-04-17T16:56:56.369Z,31.10
2018-04-17T16:59:23.967Z,22.03
2018-04-17T17:01:52.344Z,25.30
2018-04-17T17:04:20.056Z,28.30
2018-04-17T17:06:47.625Z,25.17
2018-04-17T17:09:15.247Z,22.37
2018-04-17T17:11:42.828Z,24.30
2018-04-17T17:14:10.411Z,22.20
2018-04-17T17:16:37.982Z,20.10
2018-04-17T17:19:05.607Z,26.97
2018-04-17T17:21:33.180Z,26.33
2018-04-17T17:24:00.757Z,22.90
2018-04-17T17:26:28.366Z,24.37
2018-04-17T17:28:56.729Z,26.20
2018-04-17T17:31:24.320Z,27.30
2018-04-17T17:33:51.906Z,24.43
2018-04-17T17:36:19.517Z,23.87
2018-04-17T17:38:47.869Z,30.07
2018-04-17T17:41:15.498Z,32.93
2018-04-17T17:43:43.099Z,24.57
2018-04-17T17:46:10.689Z,29.03
2018-04-17T17:48:39.065Z,28.73
2018-04-17T17:51:07.482Z,28.03
2018-04-17T17:53:35.054Z,31.50
2018-04-17T17:56:02.649Z,27.40
2018-04-17T17:58:30.214Z,32.20
2018-04-17T18:00:57.811Z,35.70
2018-04-17T18:03:25.408Z,40.67
2018-04-17T18:05:53.008Z,33.10
2018-04-17T18:08:21.369Z,37.40
2018-04-17T18:10:48.987Z,38.10
2018-04-17T18:13:16.559Z,48.83
2018-04-17T18:15:44.127Z,36.80
2018-04-17T18:18:11.857Z,53.47
2018-04-17T18:20:39.429Z,48.33
2018-04-17T18:23:07.019Z,34.03
2018-04-17T18:25:34.696Z,38.67
2018-04-17T18:28:02.323Z,27.37
2018-04-17T18:30:29.909Z,39.20
2018-04-17T18:32:57.513Z,32.97
2018-04-17T18:35:25.935Z,37.13
2018-04-17T18:37:53.955Z,37.03
2018-04-17T18:40:22.293Z,38.13
2018-04-17T18:42:49.899Z,35.43
2018-04-17T18:45:18.228Z,39.20
2018-04-17T18:47:45.881Z,39.60
2018-04-17T18:50:13.491Z,32.77
2018-04-17T18:52:41.107Z,44.93
2018-04-17T18:55:08.641Z,39.57
2018-04-17T18:57:36.247Z,40.23
2018-04-17T19:00:03.839Z,40.87
2018-04-17T19:02:31.421Z,51.50
2018-04-17T19:04:59.041Z,33.90
2018-04-17T19:07:26.652Z,34.40
2018-04-17T19:09:54.256Z,44.23
2018-04-17T19:12:21.815Z,42.00
2018-04-17T19:14:49.397Z,33.47
2018-04-17T19:17:16.967Z,37.23
2018-04-17T19:19:44.566Z,54.93
2018-04-17T19:22:12.137Z,48.90
2018-04-17T19:24:39.826Z,42.40
2018-04-17T19:27:07.432Z,41.03
2018-04-17T19:29:35.765Z,49.93
2018-04-17T19:32:03.407Z,35.90
2018-04-17T19:34:31.034Z,49.07
2018-04-17T19:36:59.407Z,61.20
2018-04-17T19:39:27.755Z,48.60
2018-04-17T19:41:55.376Z,38.60
2018-04-17T19:44:22.954Z,45.77
2018-04-17T19:46:50.553Z,56.17
2018-04-17T19:49:18.106Z,39.87
2018-04-17T19:51:45.705Z,44.50
2018-04-17T19:54:14.115Z,43.77
2018-04-17T19:56:41.729Z,45.60
2018-04-17T19:59:09.343Z,61.70
2018-04-17T20:01:36.945Z,56.77
2018-04-17T20:04:04.552Z,44.37
2018-04-17T20:06:32.137Z,46.20
2018-04-17T20:08:59.731Z,47.27
2018-04-17T20:11:27.320Z,65.70
2018-04-17T20:13:54.900Z,67.57
2018-04-17T20:16:23.256Z,40.50
2018-04-17T20:18:51.618Z,43.47
2018-04-17T20:21:19.205Z,52.90
2018-04-17T20:23:46.836Z,41.47
2018-04-17T20:26:14.416Z,43.27
2018-04-17T20:28:42.778Z,44.40
2018-04-17T20:31:10.395Z,46.13
2018-04-17T20:33:38.111Z,42.10
2018-04-17T20:36:06.476Z,42.13
2018-04-17T20:38:34.111Z,46.70
2018-04-17T20:41:01.754Z,45.43
2018-04-17T20:43:29.398Z,43.80
2018-04-17T20:45:57.023Z,53.47
2018-04-17T20:48:24.609Z,57.00
2018-04-17T20:50:52.973Z,54.07
2018-04-17T20:53:21.364Z,55.33
2018-04-17T20:55:49.726Z,57.83
2018-04-17T20:58:17.312Z,67.20
2018-04-17T21:00:45.760Z,60.83
2018-04-17T21:03:13.354Z,63.37
2018-04-17T21:05:41.727Z,52.77
2018-04-17T21:08:10.066Z,78.17
2018-04-17T21:10:37.828Z,44.23
2018-04-17T21:13:05.401Z,41.57
2018-04-17T21:15:32.994Z,36.60
2018-04-17T21:18:01.419Z,36.53
2018-04-17T21:20:29.017Z,47.40
2018-04-17T21:22:56.598Z,46.67
2018-04-17T21:25:24.930Z,42.33
2018-04-17T21:27:52.528Z,42.37
2018-04-17T21:30:20.889Z,48.00
2018-04-17T21:32:48.469Z,54.27
2018-04-17T21:35:16.793Z,45.63
2018-04-17T21:37:44.402Z,40.17
2018-04-17T21:40:11.972Z,41.53
2018-04-17T21:42:40.324Z,40.60
2018-04-17T21:45:07.905Z,54.87
2018-04-17T21:47:35.504Z,43.53
2018-04-17T21:50:03.116Z,53.53
2018-04-17T21:52:30.732Z,44.80
2018-04-17T21:54:58.303Z,42.33
2018-04-17T21:57:26.721Z,36.67
2018-04-17T21:59:54.293Z,41.53
2018-04-17T22:02:21.875Z,47.70
2018-04-17T22:04:50.200Z,38.40
2018-04-17T22:07:17.797Z,38.60
2018-04-17T22:09:46.134Z,50.30
2018-04-17T22:12:13.747Z,39.30
2018-04-17T22:14:42.100Z,39.63
2018-04-17T22:17:09.723Z,39.80
2018-04-17T22:19:37.294Z,65.37
2018-04-17T22:22:04.864Z,42.73
2018-04-17T22:24:32.432Z,35.40
2018-04-17T22:27:00.013Z,40.97
2018-04-17T22:29:27.636Z,40.13
2018-04-17T22:31:55.204Z,38.43
2018-04-17T22:34:22.784Z,38.37
2018-04-17T22:36:50.419Z,41.83
2018-04-17T22:39:18.028Z,38.93
2018-04-17T22:41:45.599Z,38.03
2018-04-17T22:44:13.976Z,43.60
2018-04-17T22:46:42.355Z,35.90
2018-04-17T22:49:11.655Z,43.40
2018-04-17T22:51:40.087Z,41.10
2018-04-17T22:54:07.987Z,45.43
2018-04-17T22:56:35.627Z,41.50
2018-04-17T22:59:03.246Z,39.47
2018-04-17T23:01:31.572Z,41.93
2018-04-17T23:03:59.193Z,46.77
2018-04-17T23:06:27.596Z,36.83
2018-04-17T23:08:55.194Z,39.10
2018-04-17T23:11:22.767Z,46.47
2018-04-17T23:13:50.456Z,42.97
2018-04-17T23:16:18.035Z,39.17
2018-04-17T23:18:45.687Z,39.70
2018-04-17T23:21:13.341Z,45.33
2018-04-17T23:23:40.959Z,43.77
2018-04-17T23:26:08.582Z,41.70
2018-04-17T23:28:36.132Z,36.50
2018-04-17T23:31:03.702Z,40.33
2018-04-17T23:33:31.272Z,37.93
2018-04-17T23:35:58.855Z,40.70
2018-04-17T23:38:26.435Z,38.27
2018-04-17T23:40:54.013Z,42.10
2018-04-17T23:43:22.341Z,50.33
2018-04-17T23:45:49.927Z,38.77
2018-04-17T23:48:17.516Z,58.27
2018-04-17T23:50:45.858Z,47.60
2018-04-17T23:53:13.706Z,48.30
2018-04-17T23:55:41.260Z,47.93
2018-04-17T23:58:09.607Z,63.40
